sensor_id;sensor_type;location;lat;lon;timestamp;P1;durP1;ratioP1;P2;durP2;ratioP2
59474;SDS011;45288;51.136;16.928;2022-09-09T00:02:20;9.57;;;7.57;;
59474;SDS011;45288;51.136;16.928;2022-09-09T00:05:32;8.70;;;7.80;;
59474;SDS011;45288;51.136;16.928;2022-09-09T00:07:55;9.57;;;7.63;;
59474;SDS011;45288;51.136;16.928;2022-09-09T00:10:29;9.40;;;7.93;;
59474;SDS011;45288;51.136;16.928;2022-09-09T00:18:15;8.90;;;8.00;;
59474;SDS011;45288;51.136;16.928;2022-09-09T00:20:48;10.38;;;8.18;;
59474;SDS011;45288;51.136;16.928;2022-09-09T00:23:38;8.93;;;7.97;;
59474;SDS011;45288;51.136;16.928;2022-09-09T00:26:15;8.82;;;7.90;;
59474;SDS011;45288;51.136;16.928;2022-09-09T00:28:45;8.63;;;7.75;;
59474;SDS011;45288;51.136;16.928;2022-09-09T00:31:13;10.13;;;7.88;;
59474;SDS011;45288;51.136;16.928;2022-09-09T00:33:40;9.52;;;7.43;;
59474;SDS011;45288;51.136;16.928;2022-09-09T00:36:10;9.00;;;7.45;;
59474;SDS011;45288;51.136;16.928;2022-09-09T00:38:45;8.35;;;7.55;;
59474;SDS011;45288;51.136;16.928;2022-09-09T00:41:20;9.10;;;7.20;;
59474;SDS011;45288;51.136;16.928;2022-09-09T00:56:46;10.18;;;8.00;;
59474;SDS011;45288;51.136;16.928;2022-09-09T01:01:47;12.25;;;8.38;;
59474;SDS011;45288;51.136;16.928;2022-09-09T01:04:16;8.65;;;7.75;;
59474;SDS011;45288;51.136;16.928;2022-09-09T01:06:45;9.55;;;8.15;;
59474;SDS011;45288;51.136;16.928;2022-09-09T01:12:05;8.30;;;7.53;;
59474;SDS011;45288;51.136;16.928;2022-09-09T01:17:46;8.82;;;7.90;;
59474;SDS011;45288;51.136;16.928;2022-09-09T01:28:08;9.37;;;8.37;;
59474;SDS011;45288;51.136;16.928;2022-09-09T01:30:34;9.02;;;7.47;;
59474;SDS011;45288;51.136;16.928;2022-09-09T01:33:00;9.15;;;8.00;;
59474;SDS011;45288;51.136;16.928;2022-09-09T01:37:54;8.60;;;7.80;;
59474;SDS011;45288;51.136;16.928;2022-09-09T01:40:20;10.38;;;7.97;;
59474;SDS011;45288;51.136;16.928;2022-09-09T01:42:48;9.67;;;7.63;;
59474;SDS011;45288;51.136;16.928;2022-09-09T01:45:14;8.50;;;7.72;;
59474;SDS011;45288;51.136;16.928;2022-09-09T01:47:39;8.67;;;7.83;;
59474;SDS011;45288;51.136;16.928;2022-09-09T01:50:15;9.02;;;8.23;;
59474;SDS011;45288;51.136;16.928;2022-09-09T01:52:42;9.73;;;8.63;;
59474;SDS011;45288;51.136;16.928;2022-09-09T01:55:11;9.25;;;8.30;;
59474;SDS011;45288;51.136;16.928;2022-09-09T02:00:11;9.00;;;8.20;;
59474;SDS011;45288;51.136;16.928;2022-09-09T02:08:07;8.95;;;8.05;;
59474;SDS011;45288;51.136;16.928;2022-09-09T02:10:58;10.77;;;8.13;;
59474;SDS011;45288;51.136;16.928;2022-09-09T02:13:43;9.43;;;7.90;;
59474;SDS011;45288;51.136;16.928;2022-09-09T02:16:13;8.63;;;7.80;;
59474;SDS011;45288;51.136;16.928;2022-09-09T02:21:07;8.55;;;7.75;;
59474;SDS011;45288;51.136;16.928;2022-09-09T02:23:35;8.70;;;7.80;;
59474;SDS011;45288;51.136;16.928;2022-09-09T02:26:04;8.60;;;7.78;;
59474;SDS011;45288;51.136;16.928;2022-09-09T02:28:31;8.50;;;7.60;;
59474;SDS011;45288;51.136;16.928;2022-09-09T02:30:58;8.70;;;7.90;;
59474;SDS011;45288;51.136;16.928;2022-09-09T02:33:33;9.43;;;8.00;;
59474;SDS011;45288;51.136;16.928;2022-09-09T02:36:01;8.50;;;7.60;;
59474;SDS011;45288;51.136;16.928;2022-09-09T02:38:31;9.50;;;7.50;;
59474;SDS011;45288;51.136;16.928;2022-09-09T02:41:07;9.17;;;8.27;;
59474;SDS011;45288;51.136;16.928;2022-09-09T02:43:34;9.10;;;7.78;;
59474;SDS011;45288;51.136;16.928;2022-09-09T02:46:03;9.80;;;7.82;;
59474;SDS011;45288;51.136;16.928;2022-09-09T02:48:35;9.48;;;7.88;;
59474;SDS011;45288;51.136;16.928;2022-09-09T02:53:41;9.10;;;7.78;;
59474;SDS011;45288;51.136;16.928;2022-09-09T02:56:13;9.27;;;8.38;;
59474;SDS011;45288;51.136;16.928;2022-09-09T02:58:42;9.05;;;8.07;;
59474;SDS011;45288;51.136;16.928;2022-09-09T03:01:09;8.70;;;7.90;;
59474;SDS011;45288;51.136;16.928;2022-09-09T03:03:35;9.18;;;7.93;;
59474;SDS011;45288;51.136;16.928;2022-09-09T03:06:05;10.18;;;8.40;;
59474;SDS011;45288;51.136;16.928;2022-09-09T03:08:31;8.73;;;7.83;;
59474;SDS011;45288;51.136;16.928;2022-09-09T03:10:58;9.40;;;8.35;;
59474;SDS011;45288;51.136;16.928;2022-09-09T03:13:27;10.05;;;8.73;;
59474;SDS011;45288;51.136;16.928;2022-09-09T03:15:53;9.18;;;7.93;;
59474;SDS011;45288;51.136;16.928;2022-09-09T03:18:20;9.90;;;8.23;;
59474;SDS011;45288;51.136;16.928;2022-09-09T03:20:49;9.32;;;8.43;;
59474;SDS011;45288;51.136;16.928;2022-09-09T03:23:15;10.57;;;8.37;;
59474;SDS011;45288;51.136;16.928;2022-09-09T03:25:48;9.57;;;8.55;;
59474;SDS011;45288;51.136;16.928;2022-09-09T03:28:18;9.15;;;8.10;;
59474;SDS011;45288;51.136;16.928;2022-09-09T03:30:45;9.93;;;8.27;;
59474;SDS011;45288;51.136;16.928;2022-09-09T03:33:11;8.88;;;7.95;;
59474;SDS011;45288;51.136;16.928;2022-09-09T03:35:38;9.23;;;8.23;;
59474;SDS011;45288;51.136;16.928;2022-09-09T03:38:05;9.70;;;8.35;;
59474;SDS011;45288;51.136;16.928;2022-09-09T03:40:33;8.98;;;8.05;;
59474;SDS011;45288;51.136;16.928;2022-09-09T03:42:58;9.00;;;8.00;;
59474;SDS011;45288;51.136;16.928;2022-09-09T03:45:25;8.65;;;7.80;;
59474;SDS011;45288;51.136;16.928;2022-09-09T03:47:51;8.83;;;7.87;;
59474;SDS011;45288;51.136;16.928;2022-09-09T03:50:17;10.40;;;7.95;;
59474;SDS011;45288;51.136;16.928;2022-09-09T03:52:45;8.27;;;7.47;;
59474;SDS011;45288;51.136;16.928;2022-09-09T03:55:18;9.85;;;7.70;;
59474;SDS011;45288;51.136;16.928;2022-09-09T03:57:44;8.77;;;7.85;;
59474;SDS011;45288;51.136;16.928;2022-09-09T04:00:09;9.43;;;7.80;;
59474;SDS011;45288;51.136;16.928;2022-09-09T04:02:50;8.95;;;7.20;;
59474;SDS011;45288;51.136;16.928;2022-09-09T04:05:19;8.27;;;7.47;;
59474;SDS011;45288;51.136;16.928;2022-09-09T04:07:46;8.13;;;7.33;;
59474;SDS011;45288;51.136;16.928;2022-09-09T04:10:12;8.35;;;7.43;;
59474;SDS011;45288;51.136;16.928;2022-09-09T04:12:39;8.50;;;7.70;;
59474;SDS011;45288;51.136;16.928;2022-09-09T04:15:05;9.30;;;7.67;;
59474;SDS011;45288;51.136;16.928;2022-09-09T04:17:31;8.60;;;7.70;;
59474;SDS011;45288;51.136;16.928;2022-09-09T04:19:59;9.90;;;8.52;;
59474;SDS011;45288;51.136;16.928;2022-09-09T04:22:24;8.83;;;7.80;;
59474;SDS011;45288;51.136;16.928;2022-09-09T04:24:50;8.77;;;7.88;;
59474;SDS011;45288;51.136;16.928;2022-09-09T04:27:18;8.95;;;8.00;;
59474;SDS011;45288;51.136;16.928;2022-09-09T04:29:44;9.20;;;8.20;;
59474;SDS011;45288;51.136;16.928;2022-09-09T04:32:11;9.05;;;8.15;;
59474;SDS011;45288;51.136;16.928;2022-09-09T04:34:38;8.57;;;7.70;;
59474;SDS011;45288;51.136;16.928;2022-09-09T04:37:03;9.30;;;7.88;;
59474;SDS011;45288;51.136;16.928;2022-09-09T04:39:29;8.07;;;7.13;;
59474;SDS011;45288;51.136;16.928;2022-09-09T04:41:57;9.20;;;7.93;;
59474;SDS011;45288;51.136;16.928;2022-09-09T04:44:23;9.53;;;7.40;;
59474;SDS011;45288;51.136;16.928;2022-09-09T04:46:48;8.98;;;7.65;;
59474;SDS011;45288;51.136;16.928;2022-09-09T04:49:14;10.33;;;7.30;;
59474;SDS011;45288;51.136;16.928;2022-09-09T04:51:41;8.27;;;7.28;;
59474;SDS011;45288;51.136;16.928;2022-09-09T04:54:06;7.87;;;6.87;;
59474;SDS011;45288;51.136;16.928;2022-09-09T04:56:32;8.07;;;6.63;;
59474;SDS011;45288;51.136;16.928;2022-09-09T04:58:59;7.90;;;6.90;;
59474;SDS011;45288;51.136;16.928;2022-09-09T05:01:44;8.23;;;6.88;;
59474;SDS011;45288;51.136;16.928;2022-09-09T05:04:11;8.17;;;6.97;;
59474;SDS011;45288;51.136;16.928;2022-09-09T05:06:36;10.77;;;7.32;;
59474;SDS011;45288;51.136;16.928;2022-09-09T05:09:03;8.43;;;6.93;;
59474;SDS011;45288;51.136;16.928;2022-09-09T05:11:30;8.18;;;7.38;;
59474;SDS011;45288;51.136;16.928;2022-09-09T05:14:15;8.77;;;7.88;;
59474;SDS011;45288;51.136;16.928;2022-09-09T05:16:41;9.75;;;8.13;;
59474;SDS011;45288;51.136;16.928;2022-09-09T05:19:10;11.15;;;8.48;;
59474;SDS011;45288;51.136;16.928;2022-09-09T05:21:57;8.57;;;7.70;;
59474;SDS011;45288;51.136;16.928;2022-09-09T05:24:30;8.80;;;7.90;;
59474;SDS011;45288;51.136;16.928;2022-09-09T05:26:59;9.45;;;8.15;;
59474;SDS011;45288;51.136;16.928;2022-09-09T05:29:27;9.80;;;8.10;;
59474;SDS011;45288;51.136;16.928;2022-09-09T05:31:54;10.52;;;7.88;;
59474;SDS011;45288;51.136;16.928;2022-09-09T05:34:20;8.90;;;8.00;;
59474;SDS011;45288;51.136;16.928;2022-09-09T05:36:46;8.85;;;7.85;;
59474;SDS011;45288;51.136;16.928;2022-09-09T05:39:13;8.48;;;6.90;;
59474;SDS011;45288;51.136;16.928;2022-09-09T05:41:39;8.23;;;6.93;;
59474;SDS011;45288;51.136;16.928;2022-09-09T05:44:05;8.88;;;7.57;;
59474;SDS011;45288;51.136;16.928;2022-09-09T05:46:36;9.40;;;6.70;;
59474;SDS011;45288;51.136;16.928;2022-09-09T05:49:02;9.68;;;6.93;;
59474;SDS011;45288;51.136;16.928;2022-09-09T05:51:31;8.50;;;6.50;;
59474;SDS011;45288;51.136;16.928;2022-09-09T05:53:59;6.40;;;5.80;;
59474;SDS011;45288;51.136;16.928;2022-09-09T05:56:27;7.15;;;6.30;;
59474;SDS011;45288;51.136;16.928;2022-09-09T05:58:54;6.93;;;6.07;;
59474;SDS011;45288;51.136;16.928;2022-09-09T06:01:22;6.50;;;5.90;;
59474;SDS011;45288;51.136;16.928;2022-09-09T06:03:49;8.05;;;6.65;;
59474;SDS011;45288;51.136;16.928;2022-09-09T06:06:16;7.88;;;6.00;;
59474;SDS011;45288;51.136;16.928;2022-09-09T06:08:43;8.18;;;6.65;;
59474;SDS011;45288;51.136;16.928;2022-09-09T06:11:11;8.73;;;5.93;;
59474;SDS011;45288;51.136;16.928;2022-09-09T06:13:37;7.30;;;6.07;;
59474;SDS011;45288;51.136;16.928;2022-09-09T06:16:05;7.13;;;6.37;;
59474;SDS011;45288;51.136;16.928;2022-09-09T06:18:32;6.47;;;5.78;;
59474;SDS011;45288;51.136;16.928;2022-09-09T06:21:02;8.57;;;6.17;;
59474;SDS011;45288;51.136;16.928;2022-09-09T06:23:32;7.50;;;6.07;;
59474;SDS011;45288;51.136;16.928;2022-09-09T06:26:05;7.07;;;6.07;;
59474;SDS011;45288;51.136;16.928;2022-09-09T06:28:33;7.53;;;6.20;;
59474;SDS011;45288;51.136;16.928;2022-09-09T06:31:04;6.25;;;5.65;;
59474;SDS011;45288;51.136;16.928;2022-09-09T06:33:30;8.32;;;5.45;;
59474;SDS011;45288;51.136;16.928;2022-09-09T06:35:57;7.57;;;5.53;;
59474;SDS011;45288;51.136;16.928;2022-09-09T06:38:23;5.90;;;5.30;;
59474;SDS011;45288;51.136;16.928;2022-09-09T06:40:52;5.95;;;5.30;;
59474;SDS011;45288;51.136;16.928;2022-09-09T06:43:20;7.90;;;5.15;;
59474;SDS011;45288;51.136;16.928;2022-09-09T06:45:58;6.50;;;5.15;;
59474;SDS011;45288;51.136;16.928;2022-09-09T06:48:25;6.35;;;4.90;;
59474;SDS011;45288;51.136;16.928;2022-09-09T06:51:01;6.90;;;4.80;;
59474;SDS011;45288;51.136;16.928;2022-09-09T06:53:28;4.90;;;4.50;;
59474;SDS011;45288;51.136;16.928;2022-09-09T06:55:54;5.00;;;4.50;;
59474;SDS011;45288;51.136;16.928;2022-09-09T06:58:20;5.20;;;4.70;;
59474;SDS011;45288;51.136;16.928;2022-09-09T07:00:48;4.60;;;4.20;;
59474;SDS011;45288;51.136;16.928;2022-09-09T07:03:15;6.67;;;4.30;;
59474;SDS011;45288;51.136;16.928;2022-09-09T07:05:40;4.47;;;3.97;;
59474;SDS011;45288;51.136;16.928;2022-09-09T07:08:06;4.70;;;4.03;;
59474;SDS011;45288;51.136;16.928;2022-09-09T07:10:32;4.72;;;3.95;;
59474;SDS011;45288;51.136;16.928;2022-09-09T07:13:00;4.87;;;4.00;;
59474;SDS011;45288;51.136;16.928;2022-09-09T07:15:27;4.32;;;3.80;;
59474;SDS011;45288;51.136;16.928;2022-09-09T07:17:53;4.47;;;3.83;;
59474;SDS011;45288;51.136;16.928;2022-09-09T07:20:19;6.00;;;4.07;;
59474;SDS011;45288;51.136;16.928;2022-09-09T07:22:45;5.13;;;4.05;;
59474;SDS011;45288;51.136;16.928;2022-09-09T07:25:12;4.18;;;3.58;;
59474;SDS011;45288;51.136;16.928;2022-09-09T07:27:37;4.30;;;3.47;;
59474;SDS011;45288;51.136;16.928;2022-09-09T07:30:04;4.95;;;3.60;;
59474;SDS011;45288;51.136;16.928;2022-09-09T07:32:31;10.30;;;4.05;;
59474;SDS011;45288;51.136;16.928;2022-09-09T07:34:58;4.47;;;3.85;;
59474;SDS011;45288;51.136;16.928;2022-09-09T07:37:25;5.47;;;3.40;;
59474;SDS011;45288;51.136;16.928;2022-09-09T07:39:52;6.55;;;3.60;;
59474;SDS011;45288;51.136;16.928;2022-09-09T07:42:18;4.03;;;3.65;;
59474;SDS011;45288;51.136;16.928;2022-09-09T07:44:44;8.13;;;3.67;;
59474;SDS011;45288;51.136;16.928;2022-09-09T07:47:13;5.95;;;3.40;;
59474;SDS011;45288;51.136;16.928;2022-09-09T07:49:43;4.75;;;3.20;;
59474;SDS011;45288;51.136;16.928;2022-09-09T07:52:12;3.63;;;3.10;;
59474;SDS011;45288;51.136;16.928;2022-09-09T07:54:41;5.10;;;2.95;;
59474;SDS011;45288;51.136;16.928;2022-09-09T07:57:07;4.65;;;2.83;;
59474;SDS011;45288;51.136;16.928;2022-09-09T07:59:35;3.77;;;2.80;;
59474;SDS011;45288;51.136;16.928;2022-09-09T08:02:02;3.67;;;2.90;;
59474;SDS011;45288;51.136;16.928;2022-09-09T08:04:30;3.10;;;2.80;;
59474;SDS011;45288;51.136;16.928;2022-09-09T08:06:57;3.72;;;2.80;;
59474;SDS011;45288;51.136;16.928;2022-09-09T08:09:24;3.00;;;2.67;;
59474;SDS011;45288;51.136;16.928;2022-09-09T08:11:53;4.57;;;2.80;;
59474;SDS011;45288;51.136;16.928;2022-09-09T08:14:19;4.50;;;2.90;;
59474;SDS011;45288;51.136;16.928;2022-09-09T08:16:46;3.55;;;2.50;;
59474;SDS011;45288;51.136;16.928;2022-09-09T08:19:14;3.67;;;2.60;;
59474;SDS011;45288;51.136;16.928;2022-09-09T08:21:41;3.22;;;2.67;;
59474;SDS011;45288;51.136;16.928;2022-09-09T08:24:08;3.15;;;2.35;;
59474;SDS011;45288;51.136;16.928;2022-09-09T08:26:35;3.43;;;2.60;;
59474;SDS011;45288;51.136;16.928;2022-09-09T08:29:02;4.15;;;2.50;;
59474;SDS011;45288;51.136;16.928;2022-09-09T08:31:33;3.60;;;2.67;;
59474;SDS011;45288;51.136;16.928;2022-09-09T08:34:00;3.50;;;2.40;;
59474;SDS011;45288;51.136;16.928;2022-09-09T08:36:29;4.07;;;2.15;;
59474;SDS011;45288;51.136;16.928;2022-09-09T08:38:56;3.42;;;2.20;;
59474;SDS011;45288;51.136;16.928;2022-09-09T08:44:06;2.92;;;2.10;;
59474;SDS011;45288;51.136;16.928;2022-09-09T08:46:36;2.93;;;2.10;;
59474;SDS011;45288;51.136;16.928;2022-09-09T08:49:07;3.75;;;2.25;;
59474;SDS011;45288;51.136;16.928;2022-09-09T08:51:36;3.00;;;1.90;;
59474;SDS011;45288;51.136;16.928;2022-09-09T08:54:03;3.23;;;1.80;;
59474;SDS011;45288;51.136;16.928;2022-09-09T08:56:31;4.03;;;1.80;;
59474;SDS011;45288;51.136;16.928;2022-09-09T08:58:59;2.58;;;1.80;;
59474;SDS011;45288;51.136;16.928;2022-09-09T09:04:26;3.28;;;1.70;;
59474;SDS011;45288;51.136;16.928;2022-09-09T09:07:11;2.55;;;1.80;;
59474;SDS011;45288;51.136;16.928;2022-09-09T09:12:16;2.90;;;1.90;;
59474;SDS011;45288;51.136;16.928;2022-09-09T09:14:42;3.10;;;1.80;;
59474;SDS011;45288;51.136;16.928;2022-09-09T09:17:12;2.90;;;1.67;;
59474;SDS011;45288;51.136;16.928;2022-09-09T09:19:40;3.70;;;1.90;;
59474;SDS011;45288;51.136;16.928;2022-09-09T09:27:12;2.65;;;1.90;;
59474;SDS011;45288;51.136;16.928;2022-09-09T09:29:40;3.53;;;2.00;;
59474;SDS011;45288;51.136;16.928;2022-09-09T09:32:10;3.47;;;1.85;;
59474;SDS011;45288;51.136;16.928;2022-09-09T09:34:38;2.10;;;1.90;;
59474;SDS011;45288;51.136;16.928;2022-09-09T09:37:17;4.80;;;2.50;;
59474;SDS011;45288;51.136;16.928;2022-09-09T09:39:46;4.60;;;2.13;;
59474;SDS011;45288;51.136;16.928;2022-09-09T09:42:13;4.40;;;2.03;;
59474;SDS011;45288;51.136;16.928;2022-09-09T09:44:41;3.50;;;2.25;;
59474;SDS011;45288;51.136;16.928;2022-09-09T09:47:20;3.92;;;2.10;;
59474;SDS011;45288;51.136;16.928;2022-09-09T09:49:57;3.83;;;1.90;;
59474;SDS011;45288;51.136;16.928;2022-09-09T09:52:26;2.70;;;1.80;;
59474;SDS011;45288;51.136;16.928;2022-09-09T09:54:54;3.85;;;2.00;;
59474;SDS011;45288;51.136;16.928;2022-09-09T09:57:24;3.15;;;2.20;;
59474;SDS011;45288;51.136;16.928;2022-09-09T10:02:40;3.55;;;1.92;;
59474;SDS011;45288;51.136;16.928;2022-09-09T10:05:20;3.38;;;1.80;;
59474;SDS011;45288;51.136;16.928;2022-09-09T10:08:02;2.17;;;1.60;;
59474;SDS011;45288;51.136;16.928;2022-09-09T10:13:20;3.05;;;1.70;;
59474;SDS011;45288;51.136;16.928;2022-09-09T10:36:38;5.63;;;2.43;;
59474;SDS011;45288;51.136;16.928;2022-09-09T10:39:14;2.90;;;2.35;;
59474;SDS011;45288;51.136;16.928;2022-09-09T10:47:25;4.43;;;2.10;;
59474;SDS011;45288;51.136;16.928;2022-09-09T10:55:09;3.77;;;2.30;;
59474;SDS011;45288;51.136;16.928;2022-09-09T10:57:43;2.85;;;2.20;;
59474;SDS011;45288;51.136;16.928;2022-09-09T11:00:53;4.97;;;1.90;;
59474;SDS011;45288;51.136;16.928;2022-09-09T11:03:00;3.60;;;2.10;;
59474;SDS011;45288;51.136;16.928;2022-09-09T11:05:29;3.10;;;2.03;;
59474;SDS011;45288;51.136;16.928;2022-09-09T11:08:01;3.55;;;1.90;;
59474;SDS011;45288;51.136;16.928;2022-09-09T11:13:02;3.28;;;1.92;;
59474;SDS011;45288;51.136;16.928;2022-09-09T11:15:31;3.05;;;2.28;;
59474;SDS011;45288;51.136;16.928;2022-09-09T11:18:01;2.72;;;1.90;;
59474;SDS011;45288;51.136;16.928;2022-09-09T11:20:27;2.08;;;1.70;;
59474;SDS011;45288;51.136;16.928;2022-09-09T11:23:04;2.75;;;1.60;;
59474;SDS011;45288;51.136;16.928;2022-09-09T11:25:34;3.53;;;1.90;;
59474;SDS011;45288;51.136;16.928;2022-09-09T11:30:56;3.60;;;1.90;;
59474;SDS011;45288;51.136;16.928;2022-09-09T11:38:50;2.70;;;1.60;;
59474;SDS011;45288;51.136;16.928;2022-09-09T11:41:16;5.22;;;1.95;;
59474;SDS011;45288;51.136;16.928;2022-09-09T11:43:44;3.73;;;1.80;;
59474;SDS011;45288;51.136;16.928;2022-09-09T11:46:11;3.40;;;2.00;;
59474;SDS011;45288;51.136;16.928;2022-09-09T11:48:38;4.10;;;1.90;;
59474;SDS011;45288;51.136;16.928;2022-09-09T11:51:08;5.20;;;1.80;;
59474;SDS011;45288;51.136;16.928;2022-09-09T11:53:35;4.03;;;1.95;;
59474;SDS011;45288;51.136;16.928;2022-09-09T11:56:02;4.43;;;1.77;;
59474;SDS011;45288;51.136;16.928;2022-09-09T11:58:29;2.97;;;1.73;;
59474;SDS011;45288;51.136;16.928;2022-09-09T12:00:58;2.27;;;1.70;;
59474;SDS011;45288;51.136;16.928;2022-09-09T12:05:55;3.10;;;1.73;;
59474;SDS011;45288;51.136;16.928;2022-09-09T12:08:27;3.47;;;2.03;;
59474;SDS011;45288;51.136;16.928;2022-09-09T12:10:56;3.22;;;1.90;;
59474;SDS011;45288;51.136;16.928;2022-09-09T12:13:25;2.42;;;1.58;;
59474;SDS011;45288;51.136;16.928;2022-09-09T12:15:53;3.10;;;1.80;;
59474;SDS011;45288;51.136;16.928;2022-09-09T12:18:26;3.90;;;1.90;;
59474;SDS011;45288;51.136;16.928;2022-09-09T12:20:58;3.83;;;1.83;;
59474;SDS011;45288;51.136;16.928;2022-09-09T12:23:32;4.20;;;1.67;;
59474;SDS011;45288;51.136;16.928;2022-09-09T12:26:07;3.22;;;1.60;;
59474;SDS011;45288;51.136;16.928;2022-09-09T12:28:55;4.00;;;1.80;;
59474;SDS011;45288;51.136;16.928;2022-09-09T12:33:49;3.13;;;1.40;;
59474;SDS011;45288;51.136;16.928;2022-09-09T12:36:24;2.70;;;1.90;;
59474;SDS011;45288;51.136;16.928;2022-09-09T12:38:52;2.00;;;1.60;;
59474;SDS011;45288;51.136;16.928;2022-09-09T12:41:19;3.58;;;1.45;;
59474;SDS011;45288;51.136;16.928;2022-09-09T12:43:45;4.20;;;1.60;;
59474;SDS011;45288;51.136;16.928;2022-09-09T12:46:15;2.08;;;1.40;;
59474;SDS011;45288;51.136;16.928;2022-09-09T12:48:46;3.40;;;1.75;;
59474;SDS011;45288;51.136;16.928;2022-09-09T12:51:19;2.47;;;1.50;;
59474;SDS011;45288;51.136;16.928;2022-09-09T12:53:46;3.20;;;1.90;;
59474;SDS011;45288;51.136;16.928;2022-09-09T12:56:19;4.13;;;1.70;;
59474;SDS011;45288;51.136;16.928;2022-09-09T12:58:46;6.35;;;2.10;;
59474;SDS011;45288;51.136;16.928;2022-09-09T13:01:23;2.58;;;1.73;;
59474;SDS011;45288;51.136;16.928;2022-09-09T13:03:50;2.58;;;1.70;;
59474;SDS011;45288;51.136;16.928;2022-09-09T13:06:20;4.10;;;1.70;;
59474;SDS011;45288;51.136;16.928;2022-09-09T13:08:56;2.70;;;1.80;;
59474;SDS011;45288;51.136;16.928;2022-09-09T13:11:24;2.35;;;1.75;;
59474;SDS011;45288;51.136;16.928;2022-09-09T13:13:55;3.55;;;1.63;;
59474;SDS011;45288;51.136;16.928;2022-09-09T13:16:28;3.33;;;1.63;;
59474;SDS011;45288;51.136;16.928;2022-09-09T13:19:07;2.20;;;1.70;;
59474;SDS011;45288;51.136;16.928;2022-09-09T13:21:34;2.63;;;1.60;;
59474;SDS011;45288;51.136;16.928;2022-09-09T13:24:00;3.43;;;1.73;;
59474;SDS011;45288;51.136;16.928;2022-09-09T13:26:28;3.57;;;1.80;;
59474;SDS011;45288;51.136;16.928;2022-09-09T13:28:55;2.40;;;1.58;;
59474;SDS011;45288;51.136;16.928;2022-09-09T13:31:33;2.88;;;1.63;;
59474;SDS011;45288;51.136;16.928;2022-09-09T13:33:59;2.10;;;1.38;;
59474;SDS011;45288;51.136;16.928;2022-09-09T13:36:32;3.50;;;1.60;;
59474;SDS011;45288;51.136;16.928;2022-09-09T13:39:00;3.53;;;1.73;;
59474;SDS011;45288;51.136;16.928;2022-09-09T13:41:33;3.22;;;1.77;;
59474;SDS011;45288;51.136;16.928;2022-09-09T13:43:59;1.73;;;1.50;;
59474;SDS011;45288;51.136;16.928;2022-09-09T13:48:59;3.92;;;1.65;;
59474;SDS011;45288;51.136;16.928;2022-09-09T13:51:44;2.63;;;1.70;;
59474;SDS011;45288;51.136;16.928;2022-09-09T13:54:13;2.70;;;1.67;;
59474;SDS011;45288;51.136;16.928;2022-09-09T13:56:39;4.43;;;1.70;;
59474;SDS011;45288;51.136;16.928;2022-09-09T13:59:06;2.50;;;1.50;;
59474;SDS011;45288;51.136;16.928;2022-09-09T14:01:34;2.30;;;1.50;;
59474;SDS011;45288;51.136;16.928;2022-09-09T14:04:00;2.75;;;1.60;;
59474;SDS011;45288;51.136;16.928;2022-09-09T14:06:26;2.70;;;1.70;;
59474;SDS011;45288;51.136;16.928;2022-09-09T14:08:53;2.42;;;1.60;;
59474;SDS011;45288;51.136;16.928;2022-09-09T14:11:19;1.85;;;1.50;;
59474;SDS011;45288;51.136;16.928;2022-09-09T14:13:47;2.63;;;1.57;;
59474;SDS011;45288;51.136;16.928;2022-09-09T14:16:12;2.50;;;1.50;;
59474;SDS011;45288;51.136;16.928;2022-09-09T14:18:39;2.88;;;1.58;;
59474;SDS011;45288;51.136;16.928;2022-09-09T14:21:06;2.67;;;1.50;;
59474;SDS011;45288;51.136;16.928;2022-09-09T14:23:31;1.93;;;1.67;;
59474;SDS011;45288;51.136;16.928;2022-09-09T14:25:57;2.83;;;1.50;;
59474;SDS011;45288;51.136;16.928;2022-09-09T14:28:23;2.10;;;1.50;;
59474;SDS011;45288;51.136;16.928;2022-09-09T14:30:49;2.42;;;1.50;;
59474;SDS011;45288;51.136;16.928;2022-09-09T14:33:15;3.57;;;1.50;;
59474;SDS011;45288;51.136;16.928;2022-09-09T14:35:41;2.47;;;1.65;;
59474;SDS011;45288;51.136;16.928;2022-09-09T14:38:08;1.60;;;1.40;;
59474;SDS011;45288;51.136;16.928;2022-09-09T14:40:34;3.53;;;1.50;;
59474;SDS011;45288;51.136;16.928;2022-09-09T14:43:00;2.40;;;1.55;;
59474;SDS011;45288;51.136;16.928;2022-09-09T14:45:26;2.83;;;1.67;;
59474;SDS011;45288;51.136;16.928;2022-09-09T14:47:52;3.55;;;1.80;;
59474;SDS011;45288;51.136;16.928;2022-09-09T14:50:18;4.60;;;1.60;;
59474;SDS011;45288;51.136;16.928;2022-09-09T14:52:44;3.40;;;1.73;;
59474;SDS011;45288;51.136;16.928;2022-09-09T14:55:10;2.38;;;1.60;;
59474;SDS011;45288;51.136;16.928;2022-09-09T14:57:36;2.70;;;1.60;;
59474;SDS011;45288;51.136;16.928;2022-09-09T15:00:06;3.10;;;1.80;;
59474;SDS011;45288;51.136;16.928;2022-09-09T15:02:32;3.70;;;2.05;;
59474;SDS011;45288;51.136;16.928;2022-09-09T15:04:58;3.90;;;2.20;;
59474;SDS011;45288;51.136;16.928;2022-09-09T15:07:24;4.47;;;2.30;;
59474;SDS011;45288;51.136;16.928;2022-09-09T15:09:50;3.85;;;2.40;;
59474;SDS011;45288;51.136;16.928;2022-09-09T15:12:16;3.83;;;1.90;;
59474;SDS011;45288;51.136;16.928;2022-09-09T15:14:44;4.75;;;1.90;;
59474;SDS011;45288;51.136;16.928;2022-09-09T15:17:10;2.55;;;1.63;;
59474;SDS011;45288;51.136;16.928;2022-09-09T15:19:36;3.55;;;2.13;;
59474;SDS011;45288;51.136;16.928;2022-09-09T15:22:02;3.92;;;2.00;;
59474;SDS011;45288;51.136;16.928;2022-09-09T15:24:28;3.50;;;1.90;;
59474;SDS011;45288;51.136;16.928;2022-09-09T15:26:54;2.60;;;1.80;;
59474;SDS011;45288;51.136;16.928;2022-09-09T15:29:19;3.73;;;2.17;;
59474;SDS011;45288;51.136;16.928;2022-09-09T15:31:45;2.88;;;1.90;;
59474;SDS011;45288;51.136;16.928;2022-09-09T15:34:12;4.47;;;1.90;;
59474;SDS011;45288;51.136;16.928;2022-09-09T15:36:40;2.90;;;1.93;;
59474;SDS011;45288;51.136;16.928;2022-09-09T15:39:07;3.55;;;1.90;;
59474;SDS011;45288;51.136;16.928;2022-09-09T15:41:33;3.80;;;2.15;;
59474;SDS011;45288;51.136;16.928;2022-09-09T15:43:59;2.53;;;1.80;;
59474;SDS011;45288;51.136;16.928;2022-09-09T15:48:55;3.05;;;2.10;;
59474;SDS011;45288;51.136;16.928;2022-09-09T15:51:22;4.03;;;2.10;;
59474;SDS011;45288;51.136;16.928;2022-09-09T15:53:49;3.40;;;2.22;;
59474;SDS011;45288;51.136;16.928;2022-09-09T15:56:18;4.65;;;2.20;;
59474;SDS011;45288;51.136;16.928;2022-09-09T15:58:44;3.93;;;2.20;;
59474;SDS011;45288;51.136;16.928;2022-09-09T16:01:10;4.30;;;2.30;;
59474;SDS011;45288;51.136;16.928;2022-09-09T16:03:38;4.32;;;2.45;;
59474;SDS011;45288;51.136;16.928;2022-09-09T16:06:04;4.43;;;2.67;;
59474;SDS011;45288;51.136;16.928;2022-09-09T16:08:34;4.43;;;2.50;;
59474;SDS011;45288;51.136;16.928;2022-09-09T16:13:35;5.05;;;2.55;;
59474;SDS011;45288;51.136;16.928;2022-09-09T16:16:01;4.97;;;2.10;;
59474;SDS011;45288;51.136;16.928;2022-09-09T16:18:32;3.90;;;2.28;;
59474;SDS011;45288;51.136;16.928;2022-09-09T16:20:57;3.75;;;2.33;;
59474;SDS011;45288;51.136;16.928;2022-09-09T16:23:23;3.08;;;1.90;;
59474;SDS011;45288;51.136;16.928;2022-09-09T16:25:56;3.00;;;2.00;;
59474;SDS011;45288;51.136;16.928;2022-09-09T16:28:21;5.03;;;2.30;;
59474;SDS011;45288;51.136;16.928;2022-09-09T16:30:48;6.40;;;2.10;;
59474;SDS011;45288;51.136;16.928;2022-09-09T16:33:15;4.22;;;2.20;;
59474;SDS011;45288;51.136;16.928;2022-09-09T16:35:41;3.60;;;2.25;;
59474;SDS011;45288;51.136;16.928;2022-09-09T16:38:07;4.13;;;2.30;;
59474;SDS011;45288;51.136;16.928;2022-09-09T16:40:33;3.08;;;2.22;;
59474;SDS011;45288;51.136;16.928;2022-09-09T16:43:00;4.80;;;2.60;;
59474;SDS011;45288;51.136;16.928;2022-09-09T16:45:26;5.25;;;2.25;;
59474;SDS011;45288;51.136;16.928;2022-09-09T16:47:52;4.83;;;2.33;;